Time;durP1;ratioP1;P1;durP2;ratioP2;P2;SDS_P1;SDS_P2;PMS_P1;PMS_P2;Temp;Humidity;BMP_temperature;BMP_pressure;BME280_temperature;BME280_humidity;BME280_pressure;Samples;Min_cycle;Max_cycle;Signal;HPM_P1;HPM_P2
2022/01/30 00:00:31;;;;;;;5.03;2.72;;;7.50;99.90;;;7.75;59.89;97652.16;5003774;28;20045;-86
2022/01/30 00:03:03;;;;;;;3.63;2.03;;;7.60;99.90;;;7.80;60.13;97649.41;5018905;28;20473;-86
2022/01/30 00:05:30;;;;;;;4.30;2.78;;;7.60;99.90;;;7.86;59.78;97650.16;5019097;28;20064;-86
2022/01/30 00:07:56;;;;;;;2.25;1.60;;;7.60;99.90;;;7.84;59.76;97645.06;5013953;28;20497;-86
2022/01/30 00:10:24;;;;;;;6.55;2.88;;;7.70;99.90;;;7.84;60.37;97661.25;5016505;28;20481;-86
2022/01/30 00:12:54;;;;;;;3.15;2.53;;;7.70;99.90;;;7.76;60.92;97637.53;5014635;28;20113;-86
2022/01/30 00:15:35;;;;;;;4.32;2.58;;;7.70;99.90;;;7.71;61.42;97651.09;5014251;28;20049;-86
2022/01/30 00:18:21;;;;;;;4.35;2.53;;;7.70;99.90;;;7.69;61.46;97635.19;5017161;28;20132;-86
2022/01/30 00:21:00;;;;;;;1.90;1.70;;;7.60;99.90;;;7.71;61.44;97624.09;5003627;28;20136;-86
2022/01/30 00:23:28;;;;;;;2.90;1.58;;;7.60;99.90;;;7.64;61.30;97639.84;5015822;28;20068;-86
2022/01/30 00:25:56;;;;;;;3.40;1.95;;;7.60;99.90;;;7.59;61.42;97627.97;5032221;28;20037;-86
2022/01/30 00:28:24;;;;;;;2.38;1.80;;;7.60;99.90;;;7.68;61.39;97632.78;5013893;28;20050;-87
2022/01/30 00:30:52;;;;;;;3.08;1.63;;;7.60;99.90;;;7.71;61.24;97635.72;5000339;28;20113;-86
2022/01/30 00:33:18;;;;;;;3.65;1.83;;;7.60;99.90;;;7.77;60.94;97617.59;4998159;28;20053;-86
2022/01/30 00:35:44;;;;;;;5.60;1.65;;;7.60;99.90;;;7.78;60.88;97629.97;4980633;28;20454;-86
2022/01/30 00:38:15;;;;;;;2.83;2.28;;;7.70;99.90;;;7.80;60.96;97612.41;5014152;28;20117;-86
2022/01/30 00:40:43;;;;;;;2.92;1.88;;;7.70;99.90;;;7.84;60.38;97615.38;4998068;28;20120;-86
2022/01/30 00:43:09;;;;;;;1.63;1.48;;;7.70;99.90;;;7.73;60.71;97603.84;4997423;28;20616;-86
2022/01/30 00:45:35;;;;;;;1.95;1.67;;;7.70;99.90;;;7.76;60.93;97616.78;5032328;28;20474;-86
2022/01/30 00:48:02;;;;;;;3.50;1.60;;;7.70;99.90;;;7.78;60.63;97625.38;5009062;28;20065;-86
2022/01/30 00:50:27;;;;;;;2.33;1.75;;;7.70;99.90;;;7.73;61.17;97608.44;5013840;28;20045;-86
2022/01/30 00:52:55;;;;;;;3.17;2.08;;;7.70;99.90;;;7.78;60.66;97598.38;5001634;28;20037;-86
2022/01/30 00:55:25;;;;;;;6.10;2.20;;;7.70;99.90;;;7.86;60.99;97621.28;4997787;28;20053;-86
2022/01/30 00:57:55;;;;;;;2.17;1.48;;;7.70;99.90;;;7.81;61.08;97608.63;4997753;28;20041;-86
2022/01/30 01:00:22;;;;;;;1.63;1.45;;;7.70;99.90;;;7.86;61.61;97610.50;4996249;28;20073;-86
2022/01/30 01:02:48;;;;;;;1.83;1.67;;;7.80;99.90;;;7.89;62.14;97611.81;5012042;28;20045;-86
2022/01/30 01:05:14;;;;;;;2.53;1.67;;;7.80;99.90;;;7.87;61.78;97606.69;4997517;28;20419;-86
2022/01/30 01:07:48;;;;;;;1.90;1.70;;;7.80;99.90;;;7.87;61.88;97606.69;4999983;28;20073;-86
2022/01/30 01:10:35;;;;;;;1.48;1.38;;;7.80;99.90;;;7.85;62.25;97606.16;5000271;28;20140;-86
2022/01/30 01:23:56;;;;;;;3.53;2.08;;;7.60;99.90;;;7.58;63.20;97593.19;5012671;28;20037;-86
2022/01/30 01:26:23;;;;;;;4.53;2.20;;;7.50;99.90;;;7.57;63.46;97581.59;5002226;28;20387;-86
2022/01/30 01:28:50;;;;;;;2.95;1.92;;;7.50;99.90;;;7.55;63.64;97559.47;5012779;28;20067;-87
2022/01/30 01:31:22;;;;;;;2.78;1.90;;;7.50;99.90;;;7.66;62.97;97560.19;5014655;28;20116;-86
2022/01/30 01:36:20;;;;;;;2.75;1.88;;;7.60;99.90;;;7.75;63.52;97596.25;5016167;28;20124;-87
2022/01/30 01:38:46;;;;;;;2.85;2.05;;;7.70;99.90;;;7.72;64.06;97566.34;5012899;28;20125;-87
2022/01/30 01:41:14;;;;;;;2.25;1.98;;;7.70;99.90;;;7.61;63.74;97592.63;5015367;28;20045;-87
2022/01/30 01:43:40;;;;;;;3.28;2.22;;;7.60;99.90;;;7.48;64.39;97586.00;5008420;28;20062;-87
2022/01/30 01:46:14;;;;;;;3.92;2.50;;;7.50;99.90;;;7.52;64.51;97591.63;5026814;28;20037;-87
2022/01/30 01:48:42;;;;;;;4.05;2.25;;;7.50;99.90;;;7.54;64.89;97584.06;5014874;28;20056;-87
2022/01/30 01:51:16;;;;;;;4.45;2.25;;;7.50;99.90;;;7.52;64.91;97589.72;5013077;28;20045;-87
2022/01/30 01:53:43;;;;;;;3.60;2.60;;;7.40;99.90;;;7.49;64.93;97566.00;5000647;28;20037;-87
2022/01/30 01:56:09;;;;;;;3.10;2.40;;;7.50;99.90;;;7.53;64.93;97594.06;5013792;28;20065;-86
2022/01/30 01:58:35;;;;;;;4.15;2.60;;;7.50;99.90;;;7.59;64.38;97579.41;5017000;28;20034;-86
2022/01/30 02:01:02;;;;;;;3.78;2.72;;;7.50;99.90;;;7.52;64.00;97594.31;5000004;28;20049;-86
2022/01/30 02:03:28;;;;;;;6.72;2.83;;;7.60;99.90;;;7.46;62.87;97582.78;5002402;28;20132;-86
2022/01/30 02:05:59;;;;;;;4.65;2.63;;;7.40;99.90;;;7.58;61.63;97591.31;5017514;28;20068;-86
2022/01/30 02:08:48;;;;;;;3.72;2.53;;;7.50;99.90;;;7.66;61.35;97606.09;5018967;28;20048;-86
2022/01/30 02:11:28;;;;;;;4.45;2.72;;;7.50;99.90;;;7.64;60.97;97585.88;5005891;28;20131;-86
2022/01/30 02:25:05;;;;;;;7.80;2.38;;;7.30;99.90;;;7.17;61.26;97604.28;5007746;28;20042;-87
2022/01/30 02:27:35;;;;;;;3.83;2.75;;;7.10;99.90;;;7.04;61.96;97589.56;5001758;28;20543;-86
2022/01/30 02:30:07;;;;;;;3.80;2.10;;;7.00;99.90;;;7.05;61.51;97604.66;5016568;28;20037;-86
2022/01/30 02:32:33;;;;;;;5.00;2.97;;;6.90;99.90;;;6.99;62.17;97597.66;5000942;28;20061;-86
2022/01/30 02:35:00;;;;;;;6.05;2.65;;;6.90;99.90;;;6.99;61.77;97589.59;5001064;28;20334;-87
2022/01/30 02:37:26;;;;;;;8.05;2.75;;;6.90;99.90;;;7.06;61.59;97554.22;5017791;28;20034;-86
2022/01/30 02:39:52;;;;;;;9.35;2.90;;;6.90;99.90;;;7.16;61.40;97600.00;5002236;28;20117;-87
2022/01/30 02:42:23;;;;;;;9.60;3.25;;;6.90;99.90;;;7.13;61.84;97585.19;5000654;28;20068;-87
2022/01/30 02:44:54;;;;;;;6.35;2.60;;;7.00;99.90;;;7.06;61.75;97591.97;5016876;28;20075;-87
2022/01/30 02:47:38;;;;;;;11.38;2.67;;;6.90;99.90;;;7.08;61.12;97600.59;5004713;28;20519;-87
2022/01/30 02:52:57;;;;;;;8.90;2.30;;;6.90;99.90;;;7.00;59.84;97561.56;5001520;28;20053;-86
2022/01/30 02:55:24;;;;;;;6.15;2.13;;;6.90;99.90;;;7.11;58.00;97600.03;5017333;28;20151;-86
2022/01/30 02:57:49;;;;;;;9.35;2.20;;;7.00;99.90;;;7.15;57.51;97622.66;5018812;28;20048;-87
2022/01/30 03:00:16;;;;;;;11.27;1.80;;;7.00;99.90;;;7.11;56.95;97559.59;5016758;28;20124;-87
2022/01/30 03:02:42;;;;;;;9.18;2.88;;;7.00;99.90;;;7.12;57.00;97599.75;5012328;28;20381;-86
2022/01/30 03:05:08;;;;;;;17.40;2.95;;;7.10;99.90;;;7.23;55.79;97588.91;5006803;28;20044;-86
2022/01/30 03:07:34;;;;;;;6.10;2.22;;;7.10;99.90;;;7.26;54.95;97602.63;5019948;28;20109;-86
2022/01/30 03:10:00;;;;;;;9.60;2.05;;;7.20;99.90;;;7.25;55.37;97602.88;5031893;28;20038;-86
2022/01/30 03:12:26;;;;;;;3.38;1.73;;;7.20;99.90;;;7.26;55.91;97594.53;5018898;28;20068;-86
2022/01/30 03:14:52;;;;;;;11.10;3.03;;;7.20;99.90;;;7.25;54.55;97603.72;5021756;28;20038;-86
2022/01/30 03:17:18;;;;;;;11.10;2.30;;;7.20;99.90;;;7.34;55.01;97601.22;5020813;28;20072;-87
2022/01/30 03:19:44;;;;;;;9.52;1.95;;;7.20;99.90;;;7.42;54.62;97579.00;4987659;28;20041;-87
2022/01/30 03:22:11;;;;;;;13.52;3.33;;;7.20;99.90;;;7.44;53.78;97582.25;5023578;28;20119;-87
2022/01/30 03:24:37;;;;;;;10.27;2.97;;;7.30;99.90;;;7.44;54.04;97582.25;5001214;28;20034;-86
2022/01/30 03:27:05;;;;;;;13.57;3.20;;;7.30;99.90;;;7.37;53.31;97585.25;5017394;28;20444;-87
2022/01/30 03:29:32;;;;;;;14.32;2.63;;;7.30;99.90;;;7.37;52.36;97573.66;4997828;28;20041;-87
2022/01/30 03:31:58;;;;;;;12.45;3.03;;;7.30;99.90;;;7.38;51.86;97561.81;5018783;28;20504;-87
2022/01/30 03:34:24;;;;;;;14.13;2.67;;;7.30;99.90;;;7.32;50.87;97562.91;5014131;28;20076;-86
2022/01/30 03:36:50;;;;;;;10.80;2.25;;;7.20;99.90;;;7.37;51.32;97570.97;5017819;28;20517;-87
2022/01/30 03:39:16;;;;;;;5.68;2.42;;;7.20;99.90;;;7.36;50.94;97561.28;5001639;28;20048;-87
2022/01/30 03:41:42;;;;;;;17.80;2.40;;;7.30;99.90;;;7.36;50.48;97580.97;5021593;28;20049;-86
2022/01/30 03:44:08;;;;;;;20.92;2.72;;;7.30;99.90;;;7.31;50.21;97567.50;5002591;28;20052;-86
2022/01/30 03:46:34;;;;;;;6.07;2.15;;;7.20;99.90;;;7.34;50.13;97576.94;5018473;28;20048;-87
2022/01/30 03:49:00;;;;;;;4.97;1.98;;;7.20;99.90;;;7.28;49.71;97556.50;5026301;28;20117;-86
2022/01/30 03:51:26;;;;;;;8.18;2.75;;;7.20;99.90;;;7.36;50.27;97570.16;5005016;28;20037;-87
2022/01/30 03:53:52;;;;;;;16.13;3.80;;;7.20;99.90;;;7.32;47.96;97560.22;5017389;28;20597;-86
2022/01/30 03:56:18;;;;;;;10.23;2.40;;;7.20;99.90;;;7.42;48.57;97556.63;5030072;28;20127;-86
2022/01/30 03:58:44;;;;;;;11.57;2.50;;;7.20;99.90;;;7.43;47.67;97564.47;5020807;28;20800;-87
2022/01/30 04:01:10;;;;;;;15.65;2.63;;;7.30;99.90;;;7.39;47.63;97514.84;5014742;28;20087;-86
2022/01/30 04:03:36;;;;;;;6.97;2.08;;;7.30;99.90;;;7.52;46.87;97570.03;5016458;28;20092;-86
2022/01/30 04:06:05;;;;;;;12.15;3.13;;;7.40;99.90;;;7.36;47.28;97567.47;5019400;28;20113;-86
2022/01/30 04:08:31;;;;;;;12.05;2.50;;;7.30;99.90;;;7.31;47.92;97555.91;5017591;28;20033;-86
2022/01/30 04:10:57;;;;;;;16.42;2.83;;;7.20;99.90;;;7.24;47.11;97547.34;5015738;28;20040;-86
2022/01/30 04:13:23;;;;;;;10.88;1.92;;;7.10;99.90;;;7.34;45.97;97539.97;5017298;28;20547;-86
2022/01/30 04:15:49;;;;;;;10.25;2.80;;;7.20;99.80;;;7.44;46.65;97541.78;5015543;28;20064;-86
2022/01/30 04:18:15;;;;;;;6.07;2.60;;;7.20;99.90;;;7.59;45.78;97551.63;5003207;28;20041;-86
2022/01/30 04:20:42;;;;;;;10.43;2.28;;;7.40;99.50;;;7.61;46.16;97533.25;5018324;28;20080;-86
2022/01/30 04:23:07;;;;;;;11.65;2.17;;;7.50;99.60;;;7.48;47.83;97550.91;5001245;28;20037;-86
2022/01/30 04:25:33;;;;;;;10.98;2.10;;;7.40;99.90;;;7.17;49.47;97564.66;5001973;28;20493;-87
2022/01/30 04:28:00;;;;;;;7.38;1.63;;;7.20;99.90;;;6.63;52.29;97543.19;5021748;28;20057;-86
2022/01/30 04:30:26;;;;;;;13.63;3.33;;;6.90;99.90;;;6.37;53.69;97562.19;5020128;28;20041;-86
2022/01/30 07:29:29;;;;;;;9.53;2.37;;;5.50;99.90;;;7.76;45.64;97422.44;6293690;22;1215067;-80
2022/01/30 07:31:56;;;;;;;7.82;2.10;;;7.60;99.90;;;7.89;45.13;97407.41;6260932;22;20265;-81
2022/01/30 07:34:22;;;;;;;11.00;2.33;;;7.80;99.20;;;8.04;44.90;97411.81;6235439;22;20049;-81
2022/01/30 07:36:48;;;;;;;8.23;2.58;;;7.90;99.20;;;8.00;44.95;97410.78;6234768;22;20019;-81
2022/01/30 07:39:17;;;;;;;3.40;2.10;;;7.90;98.60;;;7.99;45.81;97419.97;6258936;22;20738;-81
2022/01/30 07:41:44;;;;;;;6.45;2.58;;;7.90;98.40;;;7.89;44.80;97431.72;6237533;22;20015;-81
2022/01/30 07:44:12;;;;;;;19.70;2.60;;;7.90;97.70;;;7.83;45.30;97379.66;6234629;22;20025;-82
2022/01/30 07:46:39;;;;;;;8.15;2.55;;;7.90;98.10;;;7.84;44.88;97393.97;6236482;22;20487;-82
2022/01/30 07:49:05;;;;;;;10.43;2.28;;;7.90;97.90;;;7.77;44.66;97385.44;6234916;22;20505;-82
2022/01/30 07:51:31;;;;;;;8.95;2.22;;;7.80;97.00;;;7.77;45.63;97390.84;6236667;22;20076;-82
2022/01/30 07:53:57;;;;;;;7.38;2.65;;;7.80;97.50;;;7.82;45.32;97394.25;6260570;22;20046;-82
2022/01/30 07:56:23;;;;;;;8.02;2.65;;;7.80;97.10;;;7.89;45.24;97391.22;6261639;22;20068;-82
2022/01/30 07:58:49;;;;;;;7.18;2.13;;;7.90;97.60;;;7.95;44.76;97403.53;6262920;22;20404;-82
2022/01/30 08:01:16;;;;;;;6.30;2.63;;;8.00;96.50;;;7.95;45.51;97403.53;6236701;22;20015;-82
2022/01/30 08:03:42;;;;;;;6.15;2.53;;;7.90;96.90;;;8.12;45.23;97413.84;6239362;22;20435;-82
2022/01/30 08:06:08;;;;;;;6.63;1.77;;;8.00;97.10;;;8.04;45.63;97406.41;6263336;22;20011;-82
2022/01/30 08:08:34;;;;;;;7.57;2.83;;;8.00;97.00;;;8.17;45.40;97404.88;6263784;22;20047;-82
2022/01/30 08:11:00;;;;;;;13.25;3.20;;;8.10;97.20;;;8.51;45.38;97401.16;6239225;22;20045;-82
2022/01/30 08:13:26;;;;;;;6.05;2.83;;;8.30;97.70;;;8.74;44.00;97380.53;6238282;22;20015;-82
2022/01/30 08:15:53;;;;;;;17.23;2.35;;;8.60;96.20;;;8.75;43.45;97407.28;6239270;22;20607;-82
2022/01/30 08:18:19;;;;;;;8.75;2.88;;;8.80;95.70;;;8.62;43.44;97406.09;6262933;22;20026;-82
2022/01/30 08:20:45;;;;;;;10.27;3.00;;;8.80;95.10;;;8.53;44.61;97413.28;6261856;22;20403;-82
2022/01/30 08:23:13;;;;;;;12.45;3.08;;;8.60;95.90;;;8.48;45.76;97406.06;6236167;22;20438;-82
2022/01/30 08:25:39;;;;;;;16.17;2.80;;;8.60;97.00;;;8.17;47.65;97389.47;6260672;22;20023;-81
2022/01/30 08:28:06;;;;;;;10.15;3.28;;;8.50;97.60;;;8.11;47.41;97393.31;6254884;22;20423;-82
2022/01/30 08:30:32;;;;;;;15.07;3.63;;;8.40;97.80;;;7.97;47.16;97393.25;6224228;22;20338;-78
2022/01/30 08:32:59;;;;;;;16.73;4.15;;;8.30;97.40;;;7.94;47.67;97380.34;6222419;22;20034;-81
2022/01/30 08:35:25;;;;;;;12.15;3.33;;;8.10;98.00;;;7.90;47.59;97394.72;6221350;22;20058;-81
2022/01/30 08:37:52;;;;;;;9.95;2.70;;;8.00;97.90;;;7.97;46.13;97403.25;6242367;22;20385;-81
2022/01/30 08:40:19;;;;;;;9.60;3.42;;;8.10;97.20;;;7.90;47.96;97414.41;6219910;22;20445;-82
2022/01/30 08:42:45;;;;;;;15.30;2.95;;;8.00;97.70;;;7.83;47.50;97401.25;6220381;22;20453;-81
2022/01/30 08:45:15;;;;;;;13.55;3.20;;;8.00;98.00;;;7.67;47.96;97383.66;6220121;22;20023;-82
2022/01/30 08:47:42;;;;;;;5.53;2.45;;;7.90;97.80;;;7.52;48.67;97376.56;6222376;22;20019;-81
2022/01/30 08:50:08;;;;;;;11.57;2.95;;;7.70;98.30;;;7.51;49.00;97401.16;6245415;22;20418;-81
2022/01/30 08:52:35;;;;;;;14.27;3.83;;;7.70;98.90;;;7.37;49.82;97409.09;6245296;22;20020;-81
2022/01/30 08:55:02;;;;;;;15.60;4.50;;;7.60;99.40;;;7.32;49.79;97418.06;6219562;22;20012;-81
2022/01/30 08:57:28;;;;;;;8.20;2.53;;;7.40;99.40;;;7.21;48.96;97416.56;6220104;22;20062;-81
2022/01/30 08:59:55;;;;;;;9.43;2.95;;;7.30;99.20;;;7.32;49.19;97357.91;6222488;22;20027;-81
2022/01/30 09:02:22;;;;;;;6.50;1.95;;;7.30;99.40;;;7.44;47.81;97408.78;6226754;22;20022;-81
2022/01/30 09:04:48;;;;;;;6.45;2.67;;;7.40;98.70;;;7.50;47.59;97389.53;6247289;22;20072;-81
2022/01/30 09:07:18;;;;;;;12.35;3.35;;;7.50;98.40;;;7.59;48.53;97432.88;6270464;22;20103;-82
2022/01/30 09:09:43;;;;;;;5.72;2.30;;;7.50;98.90;;;7.57;48.06;97408.88;6245772;22;20323;-81
2022/01/30 09:12:09;;;;;;;7.45;2.63;;;7.60;98.80;;;7.49;49.16;97398.72;6245459;22;20049;-82
2022/01/30 09:14:39;;;;;;;8.30;2.60;;;7.60;99.30;;;7.49;48.24;97431.09;6220098;22;20095;-82
2022/01/30 09:17:13;;;;;;;9.27;3.28;;;7.70;98.90;;;7.51;49.16;97420.03;6221660;22;20350;-81
2022/01/30 09:19:44;;;;;;;11.38;3.50;;;7.60;99.40;;;7.46;49.23;97425.47;6224680;22;20039;-82
2022/01/30 09:22:11;;;;;;;7.78;2.47;;;7.50;99.50;;;7.41;49.27;97391.25;6255580;22;20026;-81
2022/01/30 09:24:37;;;;;;;11.10;3.95;;;7.50;99.70;;;7.58;49.80;97426.69;6219736;22;20458;-81
2022/01/30 09:27:04;;;;;;;6.85;3.38;;;7.50;99.90;;;7.54;49.47;97395.97;6219692;22;20024;-81
2022/01/30 09:29:34;;;;;;;8.65;2.33;;;7.50;99.90;;;7.63;49.77;97428.50;6245316;22;20027;-82
2022/01/30 09:32:01;;;;;;;8.32;1.92;;;7.60;99.90;;;7.68;50.21;97420.34;6219895;22;20285;-81
2022/01/30 09:34:28;;;;;;;16.33;3.15;;;7.70;99.90;;;7.50;50.76;97415.72;6219425;22;20477;-81
2022/01/30 09:36:54;;;;;;;9.65;3.15;;;7.60;99.90;;;7.47;51.10;97441.38;6192193;22;20020;-81
2022/01/30 09:39:19;;;;;;;12.10;2.80;;;7.50;99.90;;;7.42;50.48;97437.94;6219674;22;20019;-81
2022/01/30 09:41:46;;;;;;;4.55;2.33;;;7.40;99.90;;;7.45;49.88;97419.25;6219030;22;20047;-81
2022/01/30 09:44:12;;;;;;;4.05;2.30;;;7.40;99.90;;;7.53;49.66;97407.03;6220211;22;20020;-81
2022/01/30 09:46:39;;;;;;;10.05;3.20;;;7.50;99.90;;;7.57;49.78;97422.38;6219682;22;20016;-81
2022/01/30 09:49:06;;;;;;;11.30;3.42;;;7.50;99.90;;;7.51;48.84;97420.81;6245298;22;20012;-81
2022/01/30 09:51:34;;;;;;;8.63;3.33;;;7.50;99.90;;;7.54;48.87;97411.34;6219464;22;20023;-81
2022/01/30 09:54:01;;;;;;;11.13;3.00;;;7.50;99.50;;;7.52;48.80;97430.53;6244542;22;20016;-81
2022/01/30 09:56:27;;;;;;;7.25;2.70;;;7.50;99.30;;;7.64;48.67;97421.22;6244598;22;20011;-81
2022/01/30 09:58:53;;;;;;;9.77;3.00;;;7.60;99.80;;;7.70;47.78;97398.47;6244516;22;20050;-81
2022/01/30 10:01:19;;;;;;;5.70;2.17;;;7.70;99.00;;;7.71;47.60;97403.59;6245043;22;20065;-81
2022/01/30 10:03:49;;;;;;;17.20;4.72;;;7.70;98.40;;;7.71;47.42;97422.50;6219049;22;20115;-81
2022/01/30 10:06:19;;;;;;;13.43;3.40;;;7.70;98.50;;;7.86;48.02;97382.88;6219265;22;20016;-81
2022/01/30 10:08:48;;;;;;;9.60;3.60;;;7.70;98.80;;;8.22;47.37;97394.81;6246905;22;20470;-82
2022/01/30 10:11:41;;;;;;;15.68;4.25;;;7.90;98.30;;;8.43;46.83;97371.00;6221499;22;20064;-81
2022/01/30 10:14:14;;;;;;;11.48;3.13;;;8.10;98.50;;;8.60;46.33;97396.69;6248950;22;20042;-82
2022/01/30 10:16:48;;;;;;;12.38;4.18;;;8.50;97.50;;;8.67;45.26;97395.19;6230890;22;20146;-81
2022/01/30 10:19:19;;;;;;;15.20;3.72;;;8.70;96.90;;;8.71;44.93;97370.31;6219986;22;20382;-81
2022/01/30 10:22:06;;;;;;;;;;;8.80;96.30;;;8.62;44.15;97367.47;6231310;22;20046;-81
2022/01/30 10:24:38;;;;;;;10.02;3.58;;;8.80;95.60;;;8.43;45.16;97384.53;6277881;22;19919;-82
2022/01/30 10:27:21;;;;;;;10.32;4.00;;;8.60;95.40;;;8.41;45.00;97375.09;6219478;22;20154;-82
2022/01/30 10:30:02;;;;;;;15.55;4.32;;;8.50;95.90;;;8.00;45.29;97367.56;6230143;22;20058;-81
2022/01/30 10:32:30;;;;;;;20.48;4.63;;;8.30;95.10;;;7.98;46.17;97381.34;6246686;22;20424;-81
2022/01/30 10:35:08;;;;;;;16.52;4.82;;;8.10;96.10;;;7.75;46.13;97410.00;6244979;22;20039;-82
2022/01/30 10:37:38;;;;;;;9.85;3.65;;;8.00;96.00;;;7.53;47.39;97412.44;6223576;22;20020;-82
2022/01/30 10:40:15;;;;;;;11.88;4.57;;;7.70;97.10;;;7.64;46.67;97413.94;6230636;22;20039;-81
2022/01/30 10:42:52;;;;;;;20.25;5.07;;;7.60;97.30;;;7.57;48.04;97402.69;6246040;22;20020;-81
2022/01/30 10:45:29;;;;;;;12.05;4.55;;;7.60;97.90;;;7.49;48.39;97419.50;6239633;22;20421;-81
2022/01/30 10:48:20;;;;;;;14.20;4.05;;;7.50;98.20;;;7.39;48.90;97412.31;6245118;22;20447;-81
2022/01/30 10:50:48;;;;;;;14.27;4.50;;;7.40;98.80;;;7.31;49.06;97458.81;6280306;22;20073;-81
2022/01/30 10:53:22;;;;;;;16.25;4.15;;;7.40;98.80;;;6.84;51.90;97476.47;6220186;22;20046;-81
2022/01/30 10:55:49;;;;;;;12.82;3.90;;;7.10;99.90;;;6.23;54.70;97499.22;6229673;22;20593;-81
2022/01/30 10:58:17;;;;;;;8.38;3.10;;;6.60;99.90;;;5.77;57.28;97473.28;6220058;22;20019;-81
2022/01/30 11:00:56;;;;;;;12.57;3.75;;;6.10;99.90;;;5.37;61.51;97509.97;6219016;22;20026;-81
2022/01/30 11:03:45;;;;;;;17.23;4.85;;;5.70;99.90;;;4.76;63.83;97515.38;6254686;22;20016;-81
2022/01/30 11:06:14;;;;;;;26.67;4.78;;;5.10;99.90;;;4.60;65.70;97521.78;6280685;22;20341;-82
2022/01/30 11:08:44;;;;;;;14.50;3.90;;;4.80;99.90;;;4.71;65.03;97459.75;6245599;22;20015;-81
2022/01/30 11:11:28;;;;;;;17.35;4.50;;;4.80;99.90;;;5.16;64.94;97487.66;6245856;22;20011;-81
2022/01/30 11:19:20;;;;;;;16.73;4.65;;;5.30;99.90;;;5.15;65.60;97522.91;6229207;22;20020;-81
2022/01/30 11:22:11;;;;;;;22.02;5.75;;;5.30;99.90;;;5.28;64.07;97495.47;6194408;22;20513;-81
2022/01/30 11:25:06;;;;;;;10.40;4.03;;;5.40;99.90;;;5.28;64.19;97468.56;6233336;22;20046;-81
2022/01/30 11:27:32;;;;;;;17.17;5.47;;;5.40;99.90;;;5.60;63.76;97475.50;6225992;22;20011;-82
2022/01/30 11:29:59;;;;;;;23.10;6.63;;;5.50;99.90;;;5.77;62.31;97491.31;6243465;22;20051;-82
2022/01/30 11:32:27;;;;;;;15.77;4.80;;;5.70;99.90;;;5.86;62.03;97500.44;6244363;22;20016;-81
2022/01/30 11:34:54;;;;;;;18.55;4.97;;;5.90;99.90;;;6.22;61.49;97489.53;6219403;22;20027;-81
2022/01/30 11:37:23;;;;;;;16.58;5.60;;;6.00;99.90;;;6.36;59.84;97484.34;6242198;22;20114;-81
2022/01/30 11:39:52;;;;;;;16.27;5.75;;;6.30;99.90;;;6.52;59.91;97472.41;6244653;22;20023;-81
2022/01/30 11:42:25;;;;;;;19.95;5.32;;;6.40;99.90;;;6.66;59.24;97486.84;6219595;22;20085;-81
2022/01/30 11:45:00;;;;;;;16.42;5.35;;;6.50;99.90;;;6.72;59.97;97472.25;6279700;22;20042;-81
2022/01/30 11:47:26;;;;;;;16.83;5.60;;;6.70;99.90;;;6.89;59.11;97495.31;6270515;22;20421;-81
2022/01/30 11:50:03;;;;;;;8.88;3.67;;;6.90;99.90;;;6.81;58.51;97469.75;6218534;22;20043;-81
2022/01/30 11:53:04;;;;;;;12.98;4.72;;;6.90;99.90;;;6.72;59.00;97449.91;6230888;22;20020;-81
2022/01/30 11:55:55;;;;;;;15.00;4.50;;;6.80;99.90;;;6.83;58.21;97442.53;6269886;22;20015;-81
2022/01/30 11:58:30;;;;;;;15.05;4.72;;;6.80;99.90;;;6.88;57.73;97420.94;6229453;22;20585;-81
2022/01/30 12:00:57;;;;;;;14.52;4.45;;;6.80;99.90;;;6.94;57.63;97430.56;6267863;22;20046;-81
2022/01/30 12:03:28;;;;;;;13.57;4.50;;;6.80;99.90;;;7.08;56.16;97428.81;6216960;22;20443;-82
2022/01/30 12:05:56;;;;;;;12.63;4.55;;;6.90;99.90;;;7.05;57.18;97434.00;6229601;22;20350;-81
2022/01/30 12:08:45;;;;;;;11.63;4.15;;;6.90;99.90;;;6.98;56.50;97422.72;6218418;22;20055;-81
2022/01/30 12:11:36;;;;;;;18.55;4.55;;;7.00;99.90;;;6.87;56.63;97433.59;6229699;22;20015;-81
2022/01/30 12:14:11;;;;;;;20.80;5.22;;;6.90;99.90;;;6.89;56.92;97430.59;6268380;22;20083;-81
2022/01/30 12:17:02;;;;;;;17.20;5.10;;;6.90;99.90;;;7.03;57.00;97425.38;6280683;22;20015;-81
2022/01/30 12:19:36;;;;;;;15.98;4.25;;;7.00;99.90;;;7.02;56.86;97427.28;6247437;22;20542;-80
2022/01/30 12:22:20;;;;;;;14.57;4.95;;;7.00;99.90;;;6.99;56.05;97405.44;6283571;22;20020;-80
2022/01/30 12:24:48;;;;;;;19.85;4.70;;;7.00;99.90;;;6.95;56.98;97407.94;6271552;22;20022;-79
2022/01/30 12:27:14;;;;;;;10.70;3.58;;;6.90;99.90;;;6.96;55.47;97421.09;6231691;22;20015;-81
2022/01/30 12:29:47;;;;;;;14.43;3.97;;;6.90;99.90;;;6.94;55.92;97393.63;6263435;22;20097;-80
2022/01/30 12:34:55;;;;;;;13.38;4.10;;;7.00;99.90;;;6.79;55.55;97407.25;6314077;22;20101;-80
2022/01/30 12:37:26;;;;;;;18.38;5.32;;;6.80;99.90;;;6.99;55.92;97403.56;6274565;22;20019;-79
2022/01/30 12:39:52;;;;;;;12.77;3.93;;;6.80;99.90;;;7.06;55.65;97378.97;6261686;22;20011;-80
2022/01/30 12:42:19;;;;;;;12.60;4.20;;;6.90;99.90;;;7.07;54.93;97405.66;6250666;22;21152;-80
2022/01/30 12:44:45;;;;;;;13.85;5.53;;;7.00;99.90;;;7.09;54.57;97381.09;6225406;22;20088;-80
2022/01/30 12:47:12;;;;;;;14.60;3.72;;;7.00;99.90;;;7.20;54.64;97385.31;6225938;22;20015;-79
2022/01/30 12:49:51;;;;;;;17.55;4.68;;;7.10;99.90;;;7.32;54.07;97393.78;6252022;22;20462;-79
2022/01/30 12:54:57;;;;;;;20.85;5.60;;;7.30;99.90;;;7.41;52.91;97426.34;6290023;22;20030;-79
2022/01/30 12:57:24;;;;;;;17.45;3.95;;;7.30;99.90;;;7.25;53.11;97441.06;6253332;22;20443;-80
2022/01/30 12:59:58;;;;;;;16.13;3.80;;;7.20;99.90;;;7.26;52.80;97453.47;6224340;22;20046;-80
2022/01/30 13:02:25;;;;;;;22.48;5.38;;;7.20;99.90;;;7.29;53.76;97429.41;6250071;22;20101;-80
2022/01/30 13:05:06;;;;;;;14.43;5.53;;;7.10;99.90;;;7.23;53.50;97441.34;6248145;22;20019;-80
2022/01/30 13:07:32;;;;;;;20.10;4.45;;;7.10;99.90;;;6.92;54.02;97447.03;6259631;22;20144;-77
2022/01/30 13:10:10;;;;;;;15.98;4.07;;;7.00;99.90;;;6.56;54.70;97454.56;6248429;22;20011;-77
2022/01/30 13:12:36;;;;;;;16.52;6.20;;;6.80;99.90;;;6.35;56.58;97459.31;6248906;22;20025;-77
2022/01/30 13:15:11;;;;;;;18.77;4.60;;;6.60;99.90;;;6.37;56.52;97467.13;6223253;22;20019;-77
2022/01/30 13:17:37;;;;;;;22.52;6.65;;;6.50;99.90;;;6.47;56.51;97465.16;6248515;22;20100;-77
2022/01/30 13:20:08;;;;;;;15.90;5.18;;;6.40;99.90;;;6.55;56.04;97466.44;6246937;22;20047;-78
2022/01/30 13:22:37;;;;;;;19.23;5.68;;;6.50;99.90;;;6.56;55.57;97430.31;6258475;22;20016;-77
2022/01/30 14:23:47;;;;;;;20.98;7.28;;;3.60;99.90;;;5.18;65.22;97581.50;5082532;27;20391;-76
2022/01/30 14:26:23;;;;;;;25.75;6.32;;;5.20;99.90;;;5.22;64.32;97609.47;5065495;28;20048;-76
2022/01/30 14:29:21;;;;;;;19.10;5.47;;;5.40;99.90;;;5.08;65.08;97611.06;5086616;28;20052;-76
2022/01/30 14:31:48;;;;;;;27.88;5.90;;;5.40;99.90;;;5.12;65.37;97633.66;5066737;28;20669;-76
2022/01/30 14:34:14;;;;;;;26.30;6.40;;;5.40;99.90;;;5.21;65.16;97587.13;5077102;28;20120;-76
2022/01/30 14:36:40;;;;;;;17.33;5.90;;;5.50;99.90;;;5.17;64.50;97630.97;5057991;28;20072;-76
2022/01/30 14:39:06;;;;;;;27.50;5.72;;;5.50;99.90;;;5.08;64.57;97657.56;5075612;28;20051;-76
2022/01/30 14:41:32;;;;;;;20.13;6.32;;;5.40;99.90;;;4.98;65.41;97650.28;5030889;28;20119;-76
2022/01/30 14:43:58;;;;;;;17.13;4.85;;;5.30;99.90;;;4.99;64.69;97649.22;5048184;28;20197;-76
2022/01/30 14:46:24;;;;;;;26.85;8.30;;;5.30;99.90;;;4.91;64.76;97675.78;5058663;28;20028;-76
2022/01/30 14:48:51;;;;;;;20.08;6.43;;;5.30;99.90;;;4.96;65.03;97659.66;5074814;28;20451;-76
2022/01/30 14:51:17;;;;;;;25.75;5.43;;;5.30;99.90;;;4.85;65.50;97680.34;5032624;28;20060;-77
2022/01/30 14:53:43;;;;;;;42.22;8.15;;;5.20;99.90;;;4.73;65.10;97663.63;5083045;28;20048;-77
2022/01/30 14:56:09;;;;;;;17.10;6.03;;;5.10;99.90;;;5.02;64.29;97647.88;5056345;28;20051;-76
2022/01/30 14:58:35;;;;;;;21.05;7.25;;;5.10;99.90;;;4.98;64.11;97668.28;5060006;28;20064;-76
2022/01/30 15:01:01;;;;;;;27.67;6.75;;;5.10;99.90;;;5.08;65.24;97686.31;5060076;28;20538;-77
2022/01/30 15:03:31;;;;;;;32.30;7.25;;;5.10;99.90;;;5.14;64.65;97667.25;5066788;28;20078;-76
2022/01/30 15:05:58;;;;;;;31.10;7.38;;;5.10;99.90;;;5.05;64.38;97693.03;5058898;28;20062;-76
2022/01/30 15:08:24;;;;;;;31.30;7.95;;;5.10;99.90;;;5.10;65.06;97690.34;5069950;28;20044;-76
2022/01/30 15:10:50;;;;;;;26.95;8.05;;;5.10;99.90;;;5.17;64.02;97680.16;5054636;28;20040;-76
2022/01/30 15:13:21;;;;;;;32.58;9.57;;;5.10;99.90;;;5.18;64.00;97719.41;5054921;28;20454;-76